createdAt,value
2022-10-28T00:02:11.227Z,3.53
2022-10-28T00:04:40.073Z,3.67
2022-10-28T00:07:10.277Z,3.60
2022-10-28T00:09:39.122Z,3.13
2022-10-28T00:12:08.149Z,1.98
2022-10-28T00:14:37.021Z,2.28
2022-10-28T00:17:05.808Z,2.55
2022-10-28T00:19:34.701Z,4.22
2022-10-28T00:22:03.784Z,3.08
2022-10-28T00:24:34.054Z,4.30
2022-10-28T00:27:03.639Z,3.80
2022-10-28T00:29:32.558Z,3.13
2022-10-28T00:32:02.031Z,2.72
2022-10-28T00:34:30.810Z,3.38
2022-10-28T00:36:59.697Z,3.40
2022-10-28T00:39:28.663Z,3.47
2022-10-28T00:42:03.679Z,3.08
2022-10-28T00:44:51.238Z,4.47
2022-10-28T00:47:33.579Z,4.60
2022-10-28T00:50:13.316Z,4.75
2022-10-28T00:52:44.451Z,3.33
2022-10-28T00:55:14.320Z,3.50
2022-10-28T00:57:47.041Z,2.70
2022-10-28T01:00:16.862Z,2.95
2022-10-28T01:02:48.696Z,3.47
2022-10-28T01:05:21.889Z,3.90
2022-10-28T01:07:52.818Z,3.80
2022-10-28T01:10:29.971Z,3.08
2022-10-28T01:13:13.316Z,3.45
2022-10-28T01:15:49.589Z,2.72
2022-10-28T01:18:25.947Z,2.42
2022-10-28T01:21:27.443Z,1.98
2022-10-28T01:24:19.068Z,2.63
2022-10-28T01:27:23.993Z,2.83
2022-10-28T01:30:14.996Z,3.33
2022-10-28T01:32:56.892Z,3.28
2022-10-28T01:35:32.018Z,3.42
2022-10-28T01:38:16.240Z,2.78
2022-10-28T01:40:53.411Z,3.45
2022-10-28T01:43:27.899Z,3.85
2022-10-28T01:46:00.682Z,3.33
2022-10-28T01:51:16.034Z,3.53
2022-10-28T01:53:48.477Z,4.40
2022-10-28T01:56:20.385Z,3.33
2022-10-28T01:58:50.979Z,3.45
2022-10-28T02:01:22.045Z,4.03
2022-10-28T02:03:52.618Z,3.05
2022-10-28T02:06:25.248Z,4.65
2022-10-28T02:09:03.524Z,2.95
2022-10-28T02:12:11.766Z,4.80
2022-10-28T02:15:05.380Z,3.08
2022-10-28T02:17:45.466Z,3.88
2022-10-28T02:20:24.935Z,4.93
2022-10-28T02:22:59.076Z,4.15
2022-10-28T02:25:33.843Z,4.00
2022-10-28T02:28:08.382Z,3.20
2022-10-28T02:30:46.473Z,4.28
2022-10-28T02:33:19.909Z,4.15
2022-10-28T02:35:53.743Z,3.72
2022-10-28T02:38:28.326Z,3.20
2022-10-28T02:41:02.653Z,4.00
2022-10-28T02:43:36.198Z,4.35
2022-10-28T02:46:06.443Z,5.43
2022-10-28T02:48:41.489Z,4.13
2022-10-28T02:51:16.419Z,3.78
2022-10-28T02:53:55.866Z,3.97
2022-10-28T02:56:25.038Z,4.50
2022-10-28T02:58:54.213Z,4.85
2022-10-28T03:01:23.267Z,5.82
2022-10-28T03:03:52.192Z,4.72
2022-10-28T03:06:22.509Z,5.35
2022-10-28T03:08:51.541Z,4.35
2022-10-28T03:11:20.460Z,5.85
2022-10-28T03:13:49.341Z,3.72
2022-10-28T03:16:18.177Z,5.63
2022-10-28T03:18:47.149Z,5.22
2022-10-28T03:21:15.959Z,4.97
2022-10-28T03:23:46.227Z,5.45
2022-10-28T03:26:15.115Z,4.65
2022-10-28T03:28:43.992Z,5.95
2022-10-28T03:31:12.777Z,5.35
2022-10-28T03:33:41.586Z,5.10
2022-10-28T03:36:10.585Z,4.40
2022-10-28T03:38:39.412Z,3.88
2022-10-28T03:41:09.584Z,4.18
2022-10-28T03:43:38.447Z,3.28
2022-10-28T03:46:07.373Z,3.22
2022-10-28T03:48:36.163Z,4.20
2022-10-28T03:51:05.124Z,3.88
2022-10-28T03:53:33.936Z,3.47
2022-10-28T03:56:03.465Z,3.60
2022-10-28T03:58:37.443Z,3.67
2022-10-28T04:01:09.120Z,5.65
2022-10-28T04:04:16.001Z,3.78
2022-10-28T04:06:53.655Z,4.82
2022-10-28T04:09:24.831Z,5.55
2022-10-28T04:11:53.643Z,8.32
2022-10-28T04:14:23.837Z,6.70
2022-10-28T04:16:52.645Z,6.00
2022-10-28T04:19:21.477Z,7.40
2022-10-28T04:21:50.313Z,6.80
2022-10-28T04:24:19.171Z,5.20
2022-10-28T04:26:47.931Z,7.60
2022-10-28T04:29:16.712Z,6.43
2022-10-28T04:31:48.757Z,5.65
2022-10-28T04:34:20.339Z,8.00
2022-10-28T04:36:49.213Z,5.35
2022-10-28T04:39:18.237Z,7.22
2022-10-28T04:41:47.079Z,10.23
2022-10-28T04:44:15.899Z,10.85
2022-10-28T04:46:46.055Z,10.40
2022-10-28T04:49:14.866Z,10.05
2022-10-28T04:51:43.768Z,10.50
2022-10-28T04:54:12.602Z,12.27
2022-10-28T04:56:41.419Z,11.52
2022-10-28T04:59:10.260Z,11.15
2022-10-28T05:01:39.302Z,13.77
2022-10-28T05:04:09.789Z,15.55
2022-10-28T05:06:38.720Z,13.30
2022-10-28T05:09:07.570Z,10.10
2022-10-28T05:11:36.406Z,10.13
2022-10-28T05:14:05.551Z,10.60
2022-10-28T05:16:34.442Z,9.23
2022-10-28T05:19:03.831Z,12.25
2022-10-28T05:21:34.074Z,7.53
2022-10-28T05:24:02.908Z,9.35
2022-10-28T05:26:31.761Z,8.93
2022-10-28T05:29:00.674Z,10.68
2022-10-28T05:31:29.737Z,10.68
2022-10-28T05:33:58.589Z,11.13
2022-10-28T05:36:27.494Z,11.63
2022-10-28T05:38:57.866Z,9.60
2022-10-28T05:41:26.727Z,11.75
2022-10-28T05:43:55.494Z,12.80
2022-10-28T05:46:24.322Z,13.88
2022-10-28T05:48:53.105Z,14.90
2022-10-28T05:51:21.918Z,12.80
2022-10-28T05:53:51.332Z,14.38
2022-10-28T05:56:21.604Z,11.32
2022-10-28T06:01:24.198Z,11.05
2022-10-28T06:03:53.166Z,11.68
2022-10-28T06:06:22.026Z,9.60
2022-10-28T06:08:50.872Z,10.23
2022-10-28T06:11:19.573Z,8.10
2022-10-28T06:13:48.544Z,9.88
2022-10-28T06:16:17.393Z,9.02
2022-10-28T06:18:46.234Z,11.75
2022-10-28T06:21:15.017Z,9.55
2022-10-28T06:23:43.931Z,10.55
2022-10-28T06:26:12.809Z,9.32
2022-10-28T06:28:43.010Z,8.75
2022-10-28T06:31:11.851Z,8.82
2022-10-28T06:33:40.659Z,6.90
2022-10-28T06:36:09.819Z,7.15
2022-10-28T06:38:38.659Z,5.68
2022-10-28T06:41:07.478Z,5.70
2022-10-28T06:43:36.345Z,5.68
2022-10-28T06:46:06.719Z,7.85
2022-10-28T06:48:37.071Z,7.72
2022-10-28T06:51:06.367Z,8.50
2022-10-28T06:53:35.235Z,7.10
2022-10-28T06:56:04.101Z,7.07
2022-10-28T06:58:32.891Z,6.57
2022-10-28T07:01:05.730Z,5.47
2022-10-28T07:03:35.948Z,5.22
2022-10-28T07:06:05.110Z,4.55
2022-10-28T07:08:34.192Z,4.20
2022-10-28T07:11:03.834Z,3.95
2022-10-28T07:13:32.686Z,4.60
2022-10-28T07:16:02.052Z,3.45
2022-10-28T07:18:31.693Z,2.83
2022-10-28T07:21:02.301Z,4.03
2022-10-28T07:23:33.016Z,3.42
2022-10-28T07:26:02.035Z,2.78
2022-10-28T07:28:31.007Z,3.08
2022-10-28T07:31:02.606Z,5.28
2022-10-28T07:33:31.816Z,3.03
2022-10-28T07:36:04.616Z,2.67
2022-10-28T07:38:34.102Z,2.38
2022-10-28T07:41:06.162Z,2.95
2022-10-28T07:43:37.431Z,1.35
2022-10-28T07:46:07.792Z,1.38
2022-10-28T07:48:39.987Z,1.27
2022-10-28T07:51:13.553Z,3.83
2022-10-28T07:53:43.049Z,1.27
2022-10-28T07:56:14.645Z,1.23
2022-10-28T07:58:45.840Z,0.90
2022-10-28T08:01:17.710Z,1.10
2022-10-28T08:03:47.576Z,1.35
2022-10-28T08:06:20.635Z,0.82
2022-10-28T08:08:53.772Z,0.85
2022-10-28T08:11:24.154Z,1.63
2022-10-28T08:13:54.022Z,1.13
2022-10-28T08:16:22.923Z,1.02
2022-10-28T08:18:53.254Z,0.60
2022-10-28T08:21:24.340Z,1.92
2022-10-28T08:23:54.481Z,0.55
2022-10-28T08:26:23.416Z,1.00
2022-10-28T08:28:52.257Z,1.42
2022-10-28T08:31:21.078Z,0.50
2022-10-28T08:33:49.948Z,0.98
2022-10-28T08:36:18.953Z,0.70
2022-10-28T08:38:49.157Z,0.80
2022-10-28T08:41:29.949Z,1.10
2022-10-28T08:44:15.749Z,1.00
2022-10-28T08:47:00.461Z,0.98
2022-10-28T08:49:34.048Z,0.52
2022-10-28T08:52:13.113Z,1.30
2022-10-28T08:54:47.455Z,1.05
2022-10-28T08:57:19.727Z,1.05
2022-10-28T08:59:53.027Z,1.13
2022-10-28T09:02:24.761Z,0.60
2022-10-28T09:05:00.489Z,1.58
2022-10-28T09:07:33.365Z,1.27
2022-10-28T09:10:05.771Z,0.80
2022-10-28T09:12:46.055Z,0.70
2022-10-28T09:15:29.633Z,1.10
2022-10-28T09:18:00.824Z,1.08
2022-10-28T09:20:40.327Z,1.60
2022-10-28T09:23:15.997Z,0.82
2022-10-28T09:25:54.676Z,1.20
2022-10-28T09:28:38.950Z,0.80
2022-10-28T09:31:15.737Z,1.05
2022-10-28T09:33:57.750Z,1.10
2022-10-28T09:36:33.417Z,1.48
2022-10-28T09:39:04.587Z,0.70
2022-10-28T09:41:38.189Z,1.00
2022-10-28T09:44:15.267Z,1.08
2022-10-28T09:46:47.997Z,1.30
2022-10-28T09:49:22.017Z,0.57
2022-10-28T09:51:57.021Z,1.05
2022-10-28T09:54:33.627Z,0.70
2022-10-28T09:57:05.383Z,1.00
2022-10-28T09:59:35.569Z,1.67
2022-10-28T10:02:05.688Z,0.73
2022-10-28T10:04:35.760Z,0.73
2022-10-28T10:07:09.162Z,1.00
2022-10-28T10:09:40.217Z,0.70
2022-10-28T10:12:12.062Z,0.90
2022-10-28T10:14:44.903Z,0.50
2022-10-28T10:17:17.596Z,0.93
2022-10-28T10:20:04.860Z,1.10
2022-10-28T10:22:36.148Z,0.75
2022-10-28T10:25:05.695Z,0.80
2022-10-28T10:27:35.967Z,0.68
2022-10-28T10:30:05.696Z,1.60
2022-10-28T10:32:35.347Z,0.82
2022-10-28T10:35:19.952Z,0.60
2022-10-28T10:37:49.388Z,0.88
2022-10-28T10:40:23.864Z,0.57
2022-10-28T10:43:12.776Z,0.47
2022-10-28T10:45:43.489Z,0.85
2022-10-28T10:48:14.938Z,0.60
2022-10-28T10:50:46.951Z,0.57
2022-10-28T10:53:21.632Z,1.20
2022-10-28T10:55:53.523Z,0.63
2022-10-28T10:58:26.219Z,1.58
2022-10-28T11:00:57.260Z,0.60
2022-10-28T11:03:29.300Z,0.70
2022-10-28T11:08:50.285Z,1.83
2022-10-28T11:11:22.388Z,0.73
2022-10-28T11:14:04.923Z,0.52
2022-10-28T11:16:34.195Z,0.75
2022-10-28T11:19:20.754Z,0.85
2022-10-28T11:22:02.405Z,0.50
2022-10-28T11:25:10.199Z,0.80
2022-10-28T11:27:55.397Z,0.75
2022-10-28T11:30:40.080Z,0.95
2022-10-28T11:33:29.438Z,0.70
2022-10-28T11:36:07.616Z,1.05
2022-10-28T11:39:05.903Z,1.00
2022-10-28T11:41:46.999Z,0.70
2022-10-28T11:44:30.002Z,0.88
2022-10-28T11:47:15.466Z,0.77
2022-10-28T11:50:11.854Z,0.68
2022-10-28T11:52:58.027Z,0.82
2022-10-28T11:55:35.908Z,6.43
2022-10-28T11:58:17.634Z,3.20
2022-10-28T12:01:05.089Z,5.72
2022-10-28T12:03:54.969Z,0.90
2022-10-28T12:06:33.499Z,0.90
2022-10-28T12:09:19.006Z,0.40
2022-10-28T12:12:04.649Z,0.75
2022-10-28T12:17:14.988Z,0.70
2022-10-28T12:19:48.951Z,0.93
2022-10-28T12:22:24.829Z,0.68
2022-10-28T12:24:55.521Z,0.65
2022-10-28T12:27:29.039Z,0.70
2022-10-28T12:30:02.358Z,1.30
2022-10-28T12:32:34.687Z,0.90
2022-10-28T12:35:09.192Z,0.73
2022-10-28T12:37:46.131Z,0.80
2022-10-28T12:40:21.263Z,1.05
2022-10-28T12:42:56.619Z,0.80
2022-10-28T12:45:26.406Z,0.93
2022-10-28T12:48:01.278Z,0.68
2022-10-28T12:50:39.233Z,0.60
2022-10-28T12:53:25.729Z,0.50
2022-10-28T12:55:59.107Z,1.02
2022-10-28T12:58:34.200Z,1.05
2022-10-28T13:01:08.883Z,0.82
2022-10-28T13:03:38.213Z,0.95
2022-10-28T13:06:29.427Z,0.73
2022-10-28T13:09:15.828Z,1.05
2022-10-28T13:12:02.072Z,1.02
2022-10-28T13:14:55.201Z,0.82
2022-10-28T13:17:35.207Z,1.05
2022-10-28T13:20:16.432Z,0.93
2022-10-28T13:22:57.188Z,1.38
2022-10-28T13:26:06.142Z,0.93
2022-10-28T13:28:38.496Z,0.82
2022-10-28T13:31:09.232Z,0.70
2022-10-28T13:33:40.203Z,1.08
2022-10-28T13:36:17.082Z,1.20
2022-10-28T13:38:54.152Z,1.40
2022-10-28T13:41:38.036Z,1.05
2022-10-28T13:44:28.543Z,1.08
2022-10-28T13:47:19.568Z,1.85
2022-10-28T13:50:30.895Z,0.82
2022-10-28T13:53:39.239Z,1.30
2022-10-28T13:56:38.218Z,0.60
2022-10-28T13:59:21.555Z,1.17
2022-10-28T14:02:07.985Z,1.60
2022-10-28T14:04:45.048Z,0.60
2022-10-28T14:07:22.601Z,0.47
2022-10-28T14:09:55.584Z,0.47
2022-10-28T14:12:31.980Z,0.50
2022-10-28T14:15:09.342Z,0.60
2022-10-28T14:17:40.255Z,0.98
2022-10-28T14:20:25.399Z,0.30
2022-10-28T14:22:54.441Z,0.65
2022-10-28T14:26:02.159Z,1.10
2022-10-28T14:28:52.546Z,4.10
2022-10-28T14:31:45.497Z,1.80
2022-10-28T14:34:43.224Z,3.08
2022-10-28T14:37:45.138Z,0.88
2022-10-28T14:40:24.737Z,0.75
2022-10-28T14:43:12.681Z,1.17
2022-10-28T14:45:55.805Z,0.80
2022-10-28T14:48:51.843Z,0.90
2022-10-28T14:51:22.958Z,1.17
2022-10-28T14:53:55.021Z,1.17
2022-10-28T14:56:26.380Z,1.40
2022-10-28T14:58:58.633Z,0.55
2022-10-28T15:01:48.085Z,1.30
2022-10-28T15:04:17.681Z,2.35
2022-10-28T15:06:48.198Z,1.45
2022-10-28T15:09:20.812Z,1.38
2022-10-28T15:11:55.925Z,1.13
2022-10-28T15:14:30.435Z,0.38
2022-10-28T15:17:04.253Z,0.82
2022-10-28T15:19:36.741Z,0.80
2022-10-28T15:22:08.948Z,1.30
2022-10-28T15:24:40.351Z,1.13
2022-10-28T15:27:14.625Z,0.90
2022-10-28T15:29:44.049Z,1.15
2022-10-28T15:32:25.338Z,2.38
2022-10-28T15:34:54.192Z,1.83
2022-10-28T15:37:25.598Z,2.00
2022-10-28T15:40:13.050Z,1.52
2022-10-28T15:42:45.795Z,1.80
2022-10-28T15:45:20.597Z,1.08
2022-10-28T15:47:51.000Z,1.05
2022-10-28T15:50:32.461Z,1.02
2022-10-28T15:53:34.345Z,1.58
2022-10-28T15:56:25.630Z,2.33
2022-10-28T15:59:12.063Z,1.25
2022-10-28T16:01:41.849Z,1.38
2022-10-28T16:04:44.104Z,1.48
2022-10-28T16:07:13.370Z,2.40
2022-10-28T16:09:48.057Z,1.50
2022-10-28T16:12:20.294Z,0.70
2022-10-28T16:14:54.551Z,1.17
2022-10-28T16:17:27.121Z,3.20
2022-10-28T16:20:00.769Z,2.15
2022-10-28T16:22:31.658Z,1.45
2022-10-28T16:25:00.524Z,1.90
2022-10-28T16:27:32.586Z,5.30
2022-10-28T16:30:02.231Z,6.03
2022-10-28T16:32:38.066Z,3.72
2022-10-28T16:35:15.803Z,4.47
2022-10-28T16:37:47.330Z,2.78
2022-10-28T16:40:45.731Z,3.53
2022-10-28T16:43:08.045Z,8.18
2022-10-28T16:45:36.873Z,5.97
2022-10-28T16:48:06.977Z,6.90
2022-10-28T16:50:37.280Z,9.65
2022-10-28T16:53:47.932Z,8.40
2022-10-28T16:56:19.039Z,12.80
2022-10-28T16:58:47.864Z,24.67
2022-10-28T17:01:21.191Z,19.65
2022-10-28T17:03:50.280Z,13.23
2022-10-28T17:06:20.574Z,13.30
2022-10-28T17:09:02.466Z,27.05
2022-10-28T17:14:06.188Z,12.75
2022-10-28T17:16:37.988Z,14.77
2022-10-28T17:19:09.423Z,11.83
2022-10-28T17:21:39.723Z,11.40
2022-10-28T17:24:08.739Z,11.25
2022-10-28T17:26:37.580Z,10.27
2022-10-28T17:29:07.288Z,10.32
2022-10-28T17:31:36.128Z,11.27
2022-10-28T17:34:04.925Z,16.05
2022-10-28T17:36:34.826Z,13.18
2022-10-28T17:39:05.566Z,12.15
2022-10-28T17:41:34.399Z,11.52
2022-10-28T17:44:04.561Z,12.57
2022-10-28T17:46:33.418Z,11.63
2022-10-28T17:49:08.389Z,13.07
2022-10-28T17:51:37.565Z,14.93
2022-10-28T17:54:07.820Z,14.18
2022-10-28T17:56:37.123Z,14.75
2022-10-28T17:59:06.252Z,16.00
2022-10-28T18:01:36.176Z,17.73
2022-10-28T18:04:06.213Z,16.92
2022-10-28T18:06:35.194Z,16.08
2022-10-28T18:09:04.097Z,21.98
2022-10-28T18:11:36.622Z,22.65
2022-10-28T18:14:06.024Z,19.42
2022-10-28T18:16:38.006Z,19.45
2022-10-28T18:19:08.222Z,20.25
2022-10-28T18:21:37.108Z,13.27
2022-10-28T18:24:06.389Z,13.85
2022-10-28T18:26:38.447Z,14.85
2022-10-28T18:29:10.078Z,14.63
2022-10-28T18:31:40.581Z,15.82
2022-10-28T18:34:09.616Z,16.10
2022-10-28T18:36:38.588Z,15.57
2022-10-28T18:39:08.923Z,16.35
2022-10-28T18:41:41.950Z,17.48
2022-10-28T18:44:14.197Z,16.98
2022-10-28T18:46:45.124Z,14.50
2022-10-28T18:49:14.381Z,11.38
2022-10-28T18:51:43.237Z,10.65
2022-10-28T18:54:12.043Z,13.23
2022-10-28T18:56:46.236Z,11.35
2022-10-28T18:59:16.840Z,12.75
2022-10-28T19:01:47.136Z,14.38
2022-10-28T19:04:16.331Z,15.27
2022-10-28T19:06:46.714Z,15.18
2022-10-28T19:09:15.600Z,12.32
2022-10-28T19:11:45.818Z,15.38
2022-10-28T19:14:14.801Z,22.85
2022-10-28T19:16:43.657Z,19.15
2022-10-28T19:19:12.514Z,11.73
2022-10-28T19:21:41.354Z,12.13
2022-10-28T19:24:10.261Z,13.52
2022-10-28T19:26:39.476Z,9.90
2022-10-28T19:29:09.746Z,9.95
2022-10-28T19:31:40.018Z,9.80
2022-10-28T19:34:10.828Z,9.55
2022-10-28T19:36:39.956Z,11.50
2022-10-28T19:39:08.855Z,11.55
2022-10-28T19:41:37.716Z,15.00
2022-10-28T19:44:06.845Z,13.23
2022-10-28T19:46:37.254Z,10.88
2022-10-28T19:49:07.676Z,10.02
2022-10-28T19:51:39.684Z,12.48
2022-10-28T19:54:12.076Z,11.98
2022-10-28T19:56:42.760Z,13.60
2022-10-28T19:59:11.844Z,10.55
2022-10-28T20:01:42.599Z,14.07
2022-10-28T20:04:11.952Z,14.95
2022-10-28T20:06:41.642Z,15.98
2022-10-28T20:09:10.647Z,12.70
2022-10-28T20:11:40.384Z,11.85
2022-10-28T20:14:11.870Z,8.75
2022-10-28T20:16:43.766Z,9.68
2022-10-28T20:19:13.634Z,8.40
2022-10-28T20:21:44.075Z,8.43
2022-10-28T20:24:12.931Z,10.02
2022-10-28T20:26:41.765Z,11.00
2022-10-28T20:29:10.738Z,9.60
2022-10-28T20:31:39.885Z,9.23
2022-10-28T20:34:10.299Z,10.07
2022-10-28T20:36:40.771Z,10.82
2022-10-28T20:39:13.666Z,13.23
2022-10-28T20:41:43.828Z,16.52
2022-10-28T20:44:13.078Z,13.73
2022-10-28T20:46:42.422Z,16.13
2022-10-28T20:49:13.319Z,12.45
2022-10-28T20:51:43.053Z,13.20
2022-10-28T20:54:11.890Z,11.27
2022-10-28T20:56:42.239Z,12.60
2022-10-28T20:59:11.344Z,11.93
2022-10-28T21:01:41.791Z,14.43
2022-10-28T21:04:12.651Z,12.98
2022-10-28T21:06:41.491Z,13.07
2022-10-28T21:09:11.762Z,10.68
2022-10-28T21:11:40.741Z,10.25
2022-10-28T21:14:09.561Z,8.23
2022-10-28T21:16:38.493Z,7.95
2022-10-28T21:19:07.315Z,8.23
2022-10-28T21:21:37.555Z,10.43
2022-10-28T21:24:07.182Z,7.88
2022-10-28T21:26:36.026Z,9.23
2022-10-28T21:29:04.973Z,9.73
2022-10-28T21:31:33.852Z,10.07
2022-10-28T21:34:05.857Z,9.68
2022-10-28T21:36:38.691Z,8.38
2022-10-28T21:39:07.524Z,8.88
2022-10-28T21:41:36.337Z,9.55
2022-10-28T21:44:06.354Z,7.40
2022-10-28T21:46:35.203Z,10.10
2022-10-28T21:49:04.120Z,11.07
2022-10-28T21:51:32.965Z,10.45
2022-10-28T21:54:03.174Z,8.18
2022-10-28T21:56:32.029Z,9.95
2022-10-28T21:59:02.069Z,8.52
2022-10-28T22:01:32.467Z,8.85
2022-10-28T22:04:02.030Z,7.03
2022-10-28T22:06:30.861Z,6.93
2022-10-28T22:08:59.909Z,6.50
2022-10-28T22:11:30.759Z,5.82
2022-10-28T22:14:02.040Z,6.60
2022-10-28T22:16:32.813Z,5.55
2022-10-28T22:19:04.614Z,5.28
2022-10-28T22:21:36.387Z,4.68
2022-10-28T22:24:05.514Z,4.38
2022-10-28T22:26:35.814Z,3.55
2022-10-28T22:29:04.804Z,4.88
2022-10-28T22:31:34.385Z,4.20
2022-10-28T22:34:05.402Z,3.85
2022-10-28T22:36:34.330Z,4.30
2022-10-28T22:39:03.872Z,4.82
2022-10-28T22:41:33.496Z,5.07
2022-10-28T22:44:04.730Z,5.30
2022-10-28T22:46:36.588Z,4.88
2022-10-28T22:49:05.801Z,5.80
2022-10-28T22:51:34.678Z,5.03
2022-10-28T22:54:03.703Z,6.05
2022-10-28T22:56:32.957Z,6.03
2022-10-28T22:59:03.960Z,7.25
2022-10-28T23:01:34.193Z,5.40
2022-10-28T23:04:03.297Z,5.00
2022-10-28T23:06:32.120Z,5.25
2022-10-28T23:09:01.006Z,5.88
2022-10-28T23:11:30.202Z,6.88
2022-10-28T23:13:59.129Z,7.88
2022-10-28T23:16:29.315Z,7.97
2022-10-28T23:18:58.306Z,6.63
2022-10-28T23:21:27.579Z,6.82
2022-10-28T23:23:57.337Z,5.00
2022-10-28T23:26:27.356Z,4.72
2022-10-28T23:28:58.958Z,4.85
2022-10-28T23:31:29.830Z,3.80
2022-10-28T23:33:59.285Z,3.25
2022-10-28T23:36:28.290Z,3.85
2022-10-28T23:38:57.906Z,5.63
2022-10-28T23:41:26.746Z,4.15
2022-10-28T23:43:55.524Z,3.53
2022-10-28T23:46:25.084Z,3.42
2022-10-28T23:48:55.362Z,3.42
2022-10-28T23:51:24.153Z,3.55
2022-10-28T23:53:52.994Z,3.78
2022-10-28T23:56:22.031Z,4.68
2022-10-28T23:58:50.943Z,3.30
